Time;durP1;ratioP1;P1;durP2;ratioP2;P2;SDS_P1;SDS_P2;PMS_P1;PMS_P2;Temp;Humidity;BMP_temperature;BMP_pressure;BME280_temperature;BME280_humidity;BME280_pressure;Samples;Min_cycle;Max_cycle;Signal;HPM_P1;HPM_P2
2023/01/16 00:00:38;;;;;;;;;;;17.60;90.80;;;;;;5097286;28;19915;-49
2023/01/16 00:03:04;;;;;;;;;;;17.60;90.80;;;;;;5096966;28;20350;-48
2023/01/16 00:05:29;;;;;;;;;;;17.50;90.80;;;;;;5095102;28;19919;-46
2023/01/16 00:07:54;;;;;;;;;;;17.50;90.80;;;;;;5092710;28;20018;-51
2023/01/16 00:10:20;;;;;;;;;;;17.60;90.80;;;;;;5094561;28;20418;-46
2023/01/16 00:12:48;;;;;;;;;;;17.60;90.80;;;;;;5096948;28;19908;-50
2023/01/16 00:15:14;;;;;;;;;;;17.50;90.80;;;;;;5097039;28;19908;-49
2023/01/16 00:17:39;;;;;;;;;;;17.60;90.80;;;;;;5096809;28;20255;-46
2023/01/16 00:20:05;;;;;;;;;;;17.60;90.80;;;;;;5097795;28;19912;-48
2023/01/16 00:22:31;;;;;;;;;;;17.60;90.80;;;;;;5096744;28;19957;-48
2023/01/16 00:24:56;;;;;;;;;;;17.50;90.80;;;;;;5096321;28;19915;-47
2023/01/16 00:27:21;;;;;;;;;;;17.60;90.80;;;;;;5096020;28;19985;-52
2023/01/16 00:29:47;;;;;;;;;;;17.60;90.80;;;;;;5096747;28;19912;-50
2023/01/16 00:32:15;;;;;;;;;;;17.50;90.80;;;;;;5096755;28;19915;-51
2023/01/16 00:34:40;;;;;;;;;;;17.60;90.80;;;;;;5096221;28;19918;-50
2023/01/16 00:37:06;;;;;;;;;;;17.60;90.80;;;;;;5095188;28;20018;-47
2023/01/16 00:39:32;;;;;;;;;;;17.60;90.80;;;;;;5094862;28;20362;-48
2023/01/16 00:41:58;;;;;;;;;;;17.50;90.80;;;;;;5104745;28;19912;-52
2023/01/16 00:44:23;;;;;;;;;;;17.50;90.90;;;;;;5114544;28;19956;-50
2023/01/16 00:46:49;;;;;;;;;;;17.50;90.90;;;;;;5103799;28;19961;-51
2023/01/16 00:49:15;;;;;;;;;;;17.50;90.90;;;;;;5100281;28;20367;-50
2023/01/16 00:51:40;;;;;;;;;;;17.50;90.90;;;;;;5110408;28;20418;-46
2023/01/16 00:54:05;;;;;;;;;;;17.50;90.90;;;;;;5108378;28;19912;-50
2023/01/16 00:56:31;;;;;;;;;;;17.60;90.80;;;;;;5109911;28;20312;-49
2023/01/16 00:58:56;;;;;;;;;;;17.60;90.80;;;;;;5107902;28;19920;-47
2023/01/16 01:01:22;;;;;;;;;;;17.60;90.80;;;;;;5101194;28;20018;-52
2023/01/16 01:03:47;;;;;;;;;;;17.60;90.80;;;;;;5095081;28;20013;-49
2023/01/16 01:06:13;;;;;;;;;;;17.60;90.80;;;;;;5108199;28;19918;-50
2023/01/16 01:08:38;;;;;;;;;;;17.60;90.80;;;;;;5112069;28;19922;-47
2023/01/16 01:11:11;;;;;;;;;;;17.60;90.80;;;;;;5113921;28;19922;-48
2023/01/16 01:13:37;;;;;;;;;;;17.60;90.90;;;;;;5105601;28;19969;-48
2023/01/16 01:16:03;;;;;;;;;;;17.60;90.80;;;;;;5109063;28;19919;-52
2023/01/16 01:18:28;;;;;;;;;;;17.60;90.80;;;;;;5111604;28;19956;-49
2023/01/16 01:20:54;;;;;;;;;;;17.60;90.90;;;;;;5113962;28;19919;-48
2023/01/16 01:23:19;;;;;;;;;;;17.60;91.10;;;;;;5097248;28;19919;-51
2023/01/16 01:25:44;;;;;;;;;;;17.60;91.10;;;;;;5095911;28;20278;-53
2023/01/16 01:28:10;;;;;;;;;;;17.60;90.80;;;;;;5095248;28;19916;-51
2023/01/16 01:30:37;;;;;;;;;;;17.60;90.80;;;;;;5095614;28;19916;-48
2023/01/16 01:33:02;;;;;;;;;;;17.60;90.80;;;;;;5095348;28;19931;-49
2023/01/16 01:35:28;;;;;;;;;;;17.60;90.80;;;;;;5093583;28;20363;-50
2023/01/16 01:37:53;;;;;;;;;;;17.60;90.80;;;;;;5095117;28;20346;-51
2023/01/16 01:40:19;;;;;;;;;;;17.70;90.80;;;;;;5095327;28;19950;-48
2023/01/16 01:42:47;;;;;;;;;;;17.70;90.80;;;;;;5106332;28;19911;-52
2023/01/16 01:45:21;;;;;;;;;;;17.60;90.80;;;;;;5106564;28;19911;-50
2023/01/16 01:47:49;;;;;;;;;;;17.60;90.90;;;;;;5113887;28;19915;-52
2023/01/16 01:50:28;;;;;;;;;;;17.60;90.90;;;;;;5109693;28;19916;-49
2023/01/16 01:52:55;;;;;;;;;;;17.60;90.90;;;;;;5115536;28;19915;-49
2023/01/16 01:55:21;;;;;;;;;;;17.60;91.00;;;;;;5098967;28;19916;-47
2023/01/16 01:57:48;;;;;;;;;;;17.60;91.00;;;;;;5114371;28;19907;-50
2023/01/16 02:00:16;;;;;;;;;;;17.60;91.00;;;;;;5108632;28;19969;-49
2023/01/16 02:02:44;;;;;;;;;;;17.60;91.00;;;;;;5095300;28;20343;-51
2023/01/16 02:05:12;;;;;;;;;;;17.50;91.00;;;;;;5101289;28;19912;-53
2023/01/16 02:07:38;;;;;;;;;;;17.50;91.00;;;;;;5080279;28;20018;-51
2023/01/16 02:10:19;;;;;;;;;;;17.50;91.00;;;;;;5101451;28;19951;-48
2023/01/16 02:12:44;;;;;;;;;;;17.50;91.00;;;;;;5112448;28;20378;-52
2023/01/16 02:15:09;;;;;;;;;;;17.50;91.00;;;;;;5109690;28;20002;-50
2023/01/16 02:20:26;;;;;;;;;;;17.60;90.90;;;;;;5112693;28;19962;-48
2023/01/16 02:23:10;;;;;;;;;;;17.60;90.90;;;;;;5095544;28;19912;-50
2023/01/16 02:25:49;;;;;;;;;;;17.60;90.80;;;;;;5093688;28;19912;-52
2023/01/16 02:28:15;;;;;;;;;;;17.60;90.80;;;;;;5107019;28;19915;-49
2023/01/16 02:30:49;;;;;;;;;;;17.60;90.80;;;;;;5108773;28;20045;-52
2023/01/16 02:33:21;;;;;;;;;;;17.60;90.80;;;;;;5091527;28;19912;-49
2023/01/16 02:35:53;;;;;;;;;;;17.60;90.90;;;;;;5103963;28;20031;-49
2023/01/16 02:38:28;;;;;;;;;;;17.60;90.90;;;;;;5111653;28;19919;-50
2023/01/16 02:41:14;;;;;;;;;;;17.60;90.90;;;;;;5103661;28;19919;-51
2023/01/16 02:43:54;;;;;;;;;;;17.60;91.10;;;;;;5066370;28;20367;-54
2023/01/16 02:46:19;;;;;;;;;;;17.60;90.80;;;;;;5110377;28;19912;-51
2023/01/16 02:48:49;;;;;;;;;;;17.60;90.90;;;;;;5094927;28;19916;-49
2023/01/16 02:51:19;;;;;;;;;;;17.60;90.90;;;;;;5099274;28;19916;-49
2023/01/16 02:54:02;;;;;;;;;;;17.60;91.00;;;;;;5102173;28;19912;-50
2023/01/16 02:56:35;;;;;;;;;;;17.60;91.00;;;;;;5109980;28;19938;-49
2023/01/16 02:59:01;;;;;;;;;;;17.60;91.00;;;;;;5111297;28;19912;-49
2023/01/16 03:01:26;;;;;;;;;;;17.60;91.10;;;;;;5099106;28;19919;-52
2023/01/16 03:03:54;;;;;;;;;;;17.60;91.30;;;;;;5094117;28;20224;-50
2023/01/16 03:06:20;;;;;;;;;;;17.60;91.00;;;;;;5091412;28;19913;-48
2023/01/16 03:08:54;;;;;;;;;;;17.70;91.00;;;;;;5095617;28;20256;-51
2023/01/16 03:11:22;;;;;;;;;;;17.60;90.90;;;;;;5098257;28;19946;-52
2023/01/16 03:13:48;;;;;;;;;;;17.70;90.90;;;;;;5107827;28;20491;-53
2023/01/16 03:16:18;;;;;;;;;;;17.70;90.90;;;;;;5101607;28;19991;-49
2023/01/16 03:19:10;;;;;;;;;;;17.60;90.90;;;;;;5098075;28;20266;-51
2023/01/16 03:21:41;;;;;;;;;;;17.60;90.90;;;;;;5052120;28;20347;-48
2023/01/16 03:24:12;;;;;;;;;;;17.60;90.80;;;;;;5097662;28;20025;-54
2023/01/16 03:26:42;;;;;;;;;;;17.60;90.90;;;;;;5096967;28;19919;-53
2023/01/16 03:29:13;;;;;;;;;;;17.60;90.90;;;;;;5095786;28;19930;-49
2023/01/16 03:31:39;;;;;;;;;;;17.60;90.90;;;;;;5097885;28;19908;-52
2023/01/16 03:34:12;;;;;;;;;;;17.60;90.80;;;;;;5097701;28;20248;-50
2023/01/16 03:36:51;;;;;;;;;;;17.60;90.80;;;;;;5096714;28;19920;-50
2023/01/16 03:39:19;;;;;;;;;;;17.60;90.80;;;;;;5097730;28;19923;-51
2023/01/16 03:41:45;;;;;;;;;;;17.60;90.90;;;;;;5097461;28;19912;-49
2023/01/16 03:44:16;;;;;;;;;;;17.60;90.90;;;;;;5097913;28;19908;-52
2023/01/16 03:46:47;;;;;;;;;;;17.60;90.90;;;;;;5095844;28;20442;-54
2023/01/16 03:49:15;;;;;;;;;;;17.50;90.90;;;;;;5097163;28;20435;-50
2023/01/16 03:51:48;;;;;;;;;;;17.60;91.00;;;;;;5079846;28;19955;-49
2023/01/16 03:54:24;;;;;;;;;;;17.50;91.00;;;;;;5115793;28;19912;-53
2023/01/16 03:57:10;;;;;;;;;;;17.60;91.00;;;;;;5109613;28;20382;-50
2023/01/16 03:59:36;;;;;;;;;;;17.60;91.00;;;;;;5115064;28;19912;-50
2023/01/16 04:02:13;;;;;;;;;;;17.60;90.90;;;;;;5098285;28;20442;-50
2023/01/16 04:04:46;;;;;;;;;;;17.60;90.90;;;;;;5103091;28;19919;-48
2023/01/16 04:07:17;;;;;;;;;;;17.60;90.90;;;;;;5106541;28;19920;-48
2023/01/16 04:09:58;;;;;;;;;;;17.60;90.90;;;;;;5093717;28;19937;-49
2023/01/16 04:12:29;;;;;;;;;;;17.60;90.90;;;;;;5077573;28;19915;-48
2023/01/16 04:14:56;;;;;;;;;;;17.60;90.90;;;;;;5113418;28;19912;-52
2023/01/16 04:17:22;;;;;;;;;;;17.50;91.00;;;;;;5110406;28;20347;-53
2023/01/16 04:19:48;;;;;;;;;;;17.50;91.00;;;;;;5103998;28;19912;-49
2023/01/16 04:22:33;;;;;;;;;;;17.50;91.00;;;;;;5101657;28;19919;-50
2023/01/16 04:25:00;;;;;;;;;;;17.50;91.00;;;;;;5094066;28;19908;-47
2023/01/16 04:27:26;;;;;;;;;;;17.50;91.00;;;;;;5094531;28;19916;-52
2023/01/16 04:29:51;;;;;;;;;;;17.50;91.00;;;;;;5093647;28;20473;-48
2023/01/16 04:32:17;;;;;;;;;;;17.50;91.00;;;;;;5096269;28;19908;-53
2023/01/16 04:34:42;;;;;;;;;;;17.50;91.00;;;;;;5094250;28;19912;-52
2023/01/16 04:37:09;;;;;;;;;;;17.50;91.00;;;;;;5112769;28;20015;-52
2023/01/16 04:39:34;;;;;;;;;;;17.50;91.00;;;;;;5095276;28;19912;-51
2023/01/16 04:42:00;;;;;;;;;;;17.60;90.90;;;;;;5110045;28;19916;-49
2023/01/16 04:44:25;;;;;;;;;;;17.60;90.90;;;;;;5114338;28;19912;-48
2023/01/16 04:46:50;;;;;;;;;;;17.60;90.90;;;;;;5112426;28;19916;-49
2023/01/16 04:49:16;;;;;;;;;;;17.70;90.90;;;;;;5109817;28;19998;-53
2023/01/16 04:51:41;;;;;;;;;;;17.60;90.90;;;;;;5100224;28;19912;-50
2023/01/16 04:54:09;;;;;;;;;;;17.60;90.90;;;;;;5093803;28;19912;-49
2023/01/16 04:56:35;;;;;;;;;;;17.60;90.90;;;;;;5112796;28;19931;-49
2023/01/16 04:59:01;;;;;;;;;;;17.50;90.90;;;;;;5105089;28;19916;-49
2023/01/16 05:01:27;;;;;;;;;;;17.50;91.00;;;;;;5105264;28;19919;-51
2023/01/16 05:03:52;;;;;;;;;;;17.50;91.00;;;;;;5113554;28;19911;-49
2023/01/16 05:06:18;;;;;;;;;;;17.60;91.00;;;;;;5096620;28;19912;-52
2023/01/16 05:08:43;;;;;;;;;;;17.50;90.90;;;;;;5109182;28;19917;-54
2023/01/16 05:11:09;;;;;;;;;;;17.60;90.90;;;;;;5103768;28;19922;-51
2023/01/16 05:13:34;;;;;;;;;;;17.60;90.90;;;;;;5103826;28;20007;-52
2023/01/16 05:16:00;;;;;;;;;;;17.60;90.90;;;;;;5102584;28;19916;-52
2023/01/16 05:18:25;;;;;;;;;;;17.60;90.80;;;;;;5100690;28;20373;-52
2023/01/16 05:20:51;;;;;;;;;;;17.60;90.80;;;;;;5105139;28;20010;-53
2023/01/16 05:23:17;;;;;;;;;;;17.60;90.80;;;;;;5100416;28;19916;-52
2023/01/16 05:25:43;;;;;;;;;;;17.60;90.80;;;;;;5102969;28;19939;-52
2023/01/16 05:28:08;;;;;;;;;;;17.60;90.80;;;;;;5099558;28;20018;-49
2023/01/16 05:30:34;;;;;;;;;;;17.60;90.80;;;;;;5108574;28;19915;-48
2023/01/16 05:33:01;;;;;;;;;;;17.60;90.90;;;;;;5115488;28;19954;-51
2023/01/16 05:35:26;;;;;;;;;;;17.50;90.80;;;;;;5094930;28;19912;-51
2023/01/16 05:37:52;;;;;;;;;;;17.60;90.90;;;;;;5106633;28;19915;-48
2023/01/16 05:40:17;;;;;;;;;;;17.50;90.90;;;;;;5104118;28;20342;-50
2023/01/16 05:42:43;;;;;;;;;;;17.50;90.90;;;;;;5104865;28;19908;-52
2023/01/16 05:45:10;;;;;;;;;;;17.50;90.90;;;;;;5095551;28;19911;-49
2023/01/16 05:47:35;;;;;;;;;;;17.50;91.00;;;;;;5093819;28;19920;-50
2023/01/16 05:50:01;;;;;;;;;;;17.50;90.90;;;;;;5095029;28;20006;-49
2023/01/16 05:52:27;;;;;;;;;;;17.50;90.90;;;;;;5095156;28;19953;-52
2023/01/16 05:54:53;;;;;;;;;;;17.50;90.90;;;;;;5100076;28;19948;-51
2023/01/16 05:57:19;;;;;;;;;;;17.50;90.80;;;;;;5101964;28;19908;-52
2023/01/16 05:59:49;;;;;;;;;;;17.50;90.80;;;;;;5092284;28;20380;-53
2023/01/16 06:02:14;;;;;;;;;;;17.50;90.80;;;;;;5095283;28;20231;-52
2023/01/16 06:04:39;;;;;;;;;;;17.50;90.80;;;;;;5095199;28;19912;-49
2023/01/16 06:07:05;;;;;;;;;;;17.50;90.80;;;;;;5107014;28;19911;-48
2023/01/16 06:09:30;;;;;;;;;;;17.50;90.80;;;;;;5087698;28;19923;-48
2023/01/16 06:11:56;;;;;;;;;;;17.50;90.80;;;;;;5108308;28;19908;-48
2023/01/16 06:14:21;;;;;;;;;;;17.50;90.80;;;;;;5113807;28;19915;-52
2023/01/16 06:16:47;;;;;;;;;;;17.50;90.90;;;;;;5097806;28;19931;-48
2023/01/16 06:19:12;;;;;;;;;;;17.50;90.90;;;;;;5097744;28;19919;-50
2023/01/16 06:21:38;;;;;;;;;;;17.50;90.90;;;;;;5105216;28;19911;-50
2023/01/16 06:24:03;;;;;;;;;;;17.50;90.90;;;;;;5093840;28;20291;-48
2023/01/16 06:26:29;;;;;;;;;;;17.50;90.80;;;;;;5075235;28;20202;-53
2023/01/16 06:28:55;;;;;;;;;;;17.50;90.80;;;;;;5091480;28;19916;-54
2023/01/16 06:31:21;;;;;;;;;;;17.50;90.90;;;;;;5100780;28;19950;-51
2023/01/16 06:33:47;;;;;;;;;;;17.50;91.00;;;;;;5100930;28;19970;-52
2023/01/16 06:36:12;;;;;;;;;;;17.50;91.00;;;;;;5106527;28;20282;-48
2023/01/16 06:38:37;;;;;;;;;;;17.40;91.00;;;;;;5098375;28;20354;-51
2023/01/16 06:41:03;;;;;;;;;;;17.50;91.00;;;;;;5101684;28;20270;-49
2023/01/16 06:43:28;;;;;;;;;;;17.50;91.00;;;;;;5107035;28;19953;-53
2023/01/16 06:45:54;;;;;;;;;;;17.50;91.00;;;;;;5112488;28;19912;-52
2023/01/16 06:48:20;;;;;;;;;;;17.50;91.00;;;;;;5100881;28;19919;-51
2023/01/16 06:50:46;;;;;;;;;;;17.50;91.00;;;;;;5092194;28;19916;-51
2023/01/16 06:53:11;;;;;;;;;;;17.50;91.00;;;;;;5099031;28;20395;-51
2023/01/16 06:55:37;;;;;;;;;;;17.50;90.90;;;;;;5083148;28;19909;-51
2023/01/16 06:58:03;;;;;;;;;;;17.50;90.90;;;;;;5108643;28;19907;-54
2023/01/16 07:00:28;;;;;;;;;;;17.50;90.90;;;;;;5090460;28;20358;-51
2023/01/16 07:02:54;;;;;;;;;;;17.50;90.90;;;;;;5094079;28;19929;-49
2023/01/16 07:05:21;;;;;;;;;;;17.50;90.90;;;;;;5075880;28;19904;-52
2023/01/16 07:07:47;;;;;;;;;;;17.50;91.00;;;;;;5089535;28;19924;-53
2023/01/16 07:10:13;;;;;;;;;;;17.50;91.00;;;;;;5092154;28;19956;-52
2023/01/16 07:12:39;;;;;;;;;;;17.40;91.00;;;;;;5093151;28;19908;-50
2023/01/16 07:23:20;;;;;;;;;;;17.50;91.00;;;;;;5080202;28;19928;-53
2023/01/16 07:25:45;;;;;;;;;;;17.50;91.00;;;;;;5087233;28;20022;-50
2023/01/16 07:28:11;;;;;;;;;;;17.50;91.00;;;;;;5084612;28;19924;-53
2023/01/16 07:30:37;;;;;;;;;;;17.50;90.90;;;;;;5091970;28;19919;-54
2023/01/16 07:33:02;;;;;;;;;;;17.60;90.80;;;;;;5072991;28;19925;-50
2023/01/16 07:35:28;;;;;;;;;;;17.60;90.80;;;;;;5092154;28;19916;-50
2023/01/16 07:37:56;;;;;;;;;;;17.50;90.70;;;;;;5104743;28;19919;-52
2023/01/16 07:40:22;;;;;;;;;;;17.60;90.60;;;;;;5103301;28;20004;-50
2023/01/16 07:42:51;;;;;;;;;;;17.50;90.60;;;;;;5094714;28;20416;-54
2023/01/16 07:45:16;;;;;;;;;;;17.50;90.50;;;;;;5089153;28;19916;-48
2023/01/16 07:47:42;;;;;;;;;;;17.50;90.40;;;;;;5090131;28;19923;-48
2023/01/16 07:50:07;;;;;;;;;;;17.50;90.50;;;;;;5091113;28;19977;-51
2023/01/16 07:52:33;;;;;;;;;;;17.40;90.00;;;;;;5093447;28;19993;-53
2023/01/16 07:54:58;;;;;;;;;;;17.40;90.30;;;;;;5093909;28;19973;-51
2023/01/16 07:57:27;;;;;;;;;;;17.50;90.40;;;;;;5078683;28;20424;-52
2023/01/16 07:59:53;;;;;;;;;;;17.50;90.30;;;;;;5078971;28;19908;-50
2023/01/16 08:02:18;;;;;;;;;;;17.50;90.50;;;;;;5097160;28;20268;-51
2023/01/16 08:04:44;;;;;;;;;;;17.50;90.60;;;;;;5096839;28;19916;-51
2023/01/16 08:07:09;;;;;;;;;;;17.50;90.60;;;;;;5077933;28;19966;-54
2023/01/16 08:09:34;;;;;;;;;;;17.60;90.60;;;;;;5096141;28;20011;-48
2023/01/16 08:12:00;;;;;;;;;;;17.70;90.50;;;;;;5078857;28;20316;-53
2023/01/16 08:14:25;;;;;;;;;;;17.80;90.40;;;;;;5078597;28;19961;-51
2023/01/16 08:16:51;;;;;;;;;;;18.00;90.30;;;;;;5096471;28;19916;-49
2023/01/16 08:19:16;;;;;;;;;;;18.20;90.10;;;;;;5095413;28;19935;-54
2023/01/16 08:21:42;;;;;;;;;;;18.40;90.00;;;;;;5095810;28;20259;-52
2023/01/16 08:24:07;;;;;;;;;;;18.50;89.40;;;;;;5095770;28;19912;-50
2023/01/16 08:26:33;;;;;;;;;;;18.70;89.00;;;;;;5096626;28;19908;-49
2023/01/16 08:29:01;;;;;;;;;;;18.80;88.60;;;;;;5096900;28;20338;-48
2023/01/16 08:31:26;;;;;;;;;;;18.90;88.40;;;;;;5117073;28;19911;-51
2023/01/16 08:33:52;;;;;;;;;;;19.00;88.10;;;;;;5115722;28;19934;-50
2023/01/16 08:36:20;;;;;;;;;;;19.10;88.00;;;;;;5094472;28;19920;-50
2023/01/16 08:38:45;;;;;;;;;;;19.10;87.90;;;;;;5096470;28;19924;-49
2023/01/16 08:52:08;;;;;;;;;;;19.10;88.20;;;;;;5093614;28;19942;-52
2023/01/16 08:54:33;;;;;;;;;;;19.00;88.30;;;;;;5095711;28;20297;-50
2023/01/16 08:56:59;;;;;;;;;;;19.00;88.40;;;;;;5095693;28;19957;-53
2023/01/16 08:59:24;;;;;;;;;;;18.90;88.70;;;;;;5095940;28;20350;-53
2023/01/16 09:01:50;;;;;;;;;;;18.80;88.80;;;;;;5094507;28;19912;-52
2023/01/16 09:04:15;;;;;;;;;;;18.80;89.00;;;;;;5095727;28;19951;-52
2023/01/16 09:06:40;;;;;;;;;;;18.70;89.20;;;;;;5095228;28;19912;-54
2023/01/16 09:09:06;;;;;;;;;;;18.70;89.50;;;;;;5095548;28;19916;-53
2023/01/16 09:14:17;;;;;;;;;;;18.60;89.90;;;;;;5095785;28;20004;-50
2023/01/16 09:16:43;;;;;;;;;;;18.50;89.90;;;;;;5095688;28;19947;-50
2023/01/16 09:19:08;;;;;;;;;;;18.50;90.00;;;;;;5088938;28;19919;-51
2023/01/16 09:21:34;;;;;;;;;;;18.50;90.00;;;;;;5095587;28;19919;-47
2023/01/16 09:23:59;;;;;;;;;;;18.60;90.00;;;;;;5095398;28;19912;-50
2023/01/16 09:26:25;;;;;;;;;;;18.60;90.00;;;;;;5095474;28;19997;-53
2023/01/16 09:28:50;;;;;;;;;;;18.70;90.00;;;;;;5105761;28;19916;-50
2023/01/16 09:31:18;;;;;;;;;;;18.70;89.80;;;;;;5094168;28;20078;-49
2023/01/16 09:33:44;;;;;;;;;;;18.90;89.50;;;;;;5095801;28;19979;-50
2023/01/16 09:36:09;;;;;;;;;;;19.10;89.00;;;;;;5093730;28;20001;-50
2023/01/16 09:38:35;;;;;;;;;;;19.30;88.50;;;;;;5094194;28;20274;-46
2023/01/16 09:41:01;;;;;;;;;;;19.50;87.80;;;;;;5092364;28;19959;-50
2023/01/16 09:43:40;;;;;;;;;;;19.70;87.20;;;;;;5090341;28;20363;-52
2023/01/16 09:46:26;;;;;;;;;;;19.90;86.60;;;;;;5076073;28;20590;-49
2023/01/16 09:49:10;;;;;;;;;;;20.10;86.20;;;;;;5092473;28;19966;-50
2023/01/16 09:51:39;;;;;;;;;;;20.20;85.80;;;;;;5075553;28;19965;-48
2023/01/16 09:59:48;;;;;;;;;;;20.40;85.30;;;;;;5076929;28;19919;-52
2023/01/16 10:02:22;;;;;;;;;;;20.40;85.40;;;;;;5091346;28;19956;-53
2023/01/16 10:04:49;;;;;;;;;;;20.30;85.40;;;;;;5090103;28;19912;-54
2023/01/16 10:07:32;;;;;;;;;;;20.20;85.70;;;;;;5099459;28;19912;-46
2023/01/16 10:10:02;;;;;;;;;;;20.10;85.70;;;;;;5108966;28;19912;-50
2023/01/16 10:12:37;;;;;;;;;;;20.00;86.10;;;;;;5110125;28;20304;-50
2023/01/16 10:15:05;;;;;;;;;;;19.90;86.40;;;;;;5095318;28;19908;-54
2023/01/16 10:17:39;;;;;;;;;;;19.80;86.70;;;;;;5093533;28;19919;-47
2023/01/16 10:20:05;;;;;;;;;;;19.70;87.10;;;;;;5115315;28;19904;-48
2023/01/16 10:22:39;;;;;;;;;;;19.60;87.20;;;;;;5113114;28;19908;-51
2023/01/16 10:25:07;;;;;;;;;;;19.60;87.60;;;;;;5098850;28;19908;-48
2023/01/16 10:27:40;;;;;;;;;;;19.60;87.70;;;;;;5093587;28;19999;-50
2023/01/16 10:30:09;;;;;;;;;;;19.60;87.90;;;;;;5092033;28;20365;-48
2023/01/16 10:32:43;;;;;;;;;;;19.60;88.00;;;;;;5094582;28;19999;-51
2023/01/16 10:35:13;;;;;;;;;;;19.50;88.20;;;;;;5098087;28;19908;-47
2023/01/16 10:37:40;;;;;;;;;;;19.50;88.30;;;;;;5094103;28;19923;-50
2023/01/16 10:40:18;;;;;;;;;;;19.60;88.20;;;;;;5105951;28;20002;-47
2023/01/16 10:51:02;;;;;;;;;;;19.70;88.00;;;;;;5074168;28;20318;-48
2023/01/16 10:53:28;;;;;;;;;;;19.80;87.80;;;;;;5076416;28;19915;-49
2023/01/16 10:55:55;;;;;;;;;;;19.80;87.80;;;;;;5096108;28;19907;-45
2023/01/16 10:58:23;;;;;;;;;;;19.80;87.60;;;;;;5096904;28;19911;-50
2023/01/16 11:00:50;;;;;;;;;;;19.90;87.60;;;;;;5091471;28;19908;-53
2023/01/16 11:03:31;;;;;;;;;;;20.00;87.50;;;;;;5079394;28;19939;-51
2023/01/16 11:06:16;;;;;;;;;;;20.00;87.40;;;;;;5110837;28;19903;-49
2023/01/16 11:08:42;;;;;;;;;;;20.00;87.40;;;;;;5073639;28;19919;-48
2023/01/16 11:19:41;;;;;;;;;;;20.00;87.40;;;;;;5114254;28;20002;-49
2023/01/16 11:22:19;;;;;;;;;;;20.10;87.30;;;;;;5105870;28;20002;-49
2023/01/16 11:24:45;;;;;;;;;;;20.10;87.10;;;;;;5090861;28;19918;-48
2023/01/16 11:27:14;;;;;;;;;;;20.10;87.30;;;;;;5101713;28;19912;-48
2023/01/16 11:29:42;;;;;;;;;;;20.00;87.30;;;;;;5093413;28;19912;-50
2023/01/16 11:32:09;;;;;;;;;;;20.00;87.50;;;;;;5093471;28;19911;-48
2023/01/16 11:34:36;;;;;;;;;;;20.00;87.50;;;;;;5078519;28;19904;-52
2023/01/16 11:37:04;;;;;;;;;;;19.90;87.60;;;;;;5096989;28;20003;-49
2023/01/16 11:39:31;;;;;;;;;;;19.90;87.80;;;;;;5079375;28;20318;-50
2023/01/16 11:41:57;;;;;;;;;;;19.90;87.90;;;;;;5097006;28;19912;-47
2023/01/16 11:47:20;;;;;;;;;;;19.90;88.00;;;;;;5110766;28;20334;-48
2023/01/16 11:49:47;;;;;;;;;;;19.90;88.00;;;;;;5096335;28;20003;-53
2023/01/16 11:52:26;;;;;;;;;;;19.90;87.90;;;;;;5104869;28;19908;-50
2023/01/16 11:55:02;;;;;;;;;;;19.90;87.90;;;;;;5096661;28;20038;-49
2023/01/16 11:57:30;;;;;;;;;;;19.90;87.90;;;;;;5092641;28;19915;-48
2023/01/16 11:59:56;;;;;;;;;;;19.90;88.00;;;;;;5094847;28;19909;-50
2023/01/16 12:02:32;;;;;;;;;;;19.90;87.90;;;;;;5093464;28;19919;-47
2023/01/16 12:07:51;;;;;;;;;;;20.00;87.90;;;;;;5096557;28;19958;-52
2023/01/16 12:10:25;;;;;;;;;;;20.00;87.80;;;;;;5104209;28;19919;-48
2023/01/16 12:15:51;;;;;;;;;;;20.10;87.60;;;;;;5076552;28;19969;-47
2023/01/16 12:18:26;;;;;;;;;;;20.10;87.60;;;;;;5104267;28;19981;-49
2023/01/16 12:20:55;;;;;;;;;;;20.10;87.50;;;;;;5098113;28;19916;-48
2023/01/16 12:23:27;;;;;;;;;;;20.10;88.00;;;;;;5093875;28;19977;-46
2023/01/16 12:25:52;;;;;;;;;;;20.10;87.60;;;;;;5096254;28;19915;-44
2023/01/16 12:28:17;;;;;;;;;;;20.00;87.50;;;;;;5109340;28;20010;-46
2023/01/16 12:31:15;;;;;;;;;;;20.10;87.50;;;;;;5098895;28;19915;-45
2023/01/16 12:33:41;;;;;;;;;;;20.00;87.50;;;;;;5093597;28;20418;-47
2023/01/16 12:36:11;;;;;;;;;;;20.00;86.90;;;;;;5095163;28;19959;-46
2023/01/16 12:38:38;;;;;;;;;;;20.00;87.30;;;;;;5096244;28;19908;-47
2023/01/16 12:44:06;;;;;;;;;;;20.00;87.40;;;;;;5095550;28;20420;-45
2023/01/16 12:46:41;;;;;;;;;;;20.00;87.40;;;;;;5096580;28;19954;-47
2023/01/16 12:49:07;;;;;;;;;;;20.00;87.40;;;;;;5092516;28;19916;-49
2023/01/16 12:51:53;;;;;;;;;;;20.00;87.30;;;;;;5094041;28;19916;-50
2023/01/16 12:54:30;;;;;;;;;;;20.00;87.30;;;;;;5072471;28;20348;-48
2023/01/16 12:57:13;;;;;;;;;;;20.00;87.20;;;;;;5094348;28;19919;-47
2023/01/16 12:59:42;;;;;;;;;;;20.00;87.20;;;;;;5098262;28;19912;-49
2023/01/16 13:02:19;;;;;;;;;;;20.00;87.00;;;;;;5098440;28;19920;-54
2023/01/16 13:05:04;;;;;;;;;;;20.00;87.20;;;;;;5103841;28;19919;-50
2023/01/16 13:07:36;;;;;;;;;;;20.10;87.20;;;;;;5093203;28;19916;-51
2023/01/16 13:15:43;;;;;;;;;;;20.10;87.20;;;;;;5114284;28;19958;-46
2023/01/16 13:18:17;;;;;;;;;;;20.10;87.20;;;;;;5115492;28;20013;-49
2023/01/16 13:20:45;;;;;;;;;;;20.10;87.30;;;;;;5083252;28;19912;-49
2023/01/16 13:23:19;;;;;;;;;;;20.10;87.20;;;;;;5093681;28;19912;-49
2023/01/16 13:25:46;;;;;;;;;;;20.10;87.30;;;;;;5094271;28;19913;-46
2023/01/16 13:28:32;;;;;;;;;;;20.20;87.40;;;;;;5099269;28;20367;-52
2023/01/16 13:31:01;;;;;;;;;;;20.20;87.30;;;;;;5092929;28;19983;-51
2023/01/16 13:33:29;;;;;;;;;;;20.20;87.50;;;;;;5093773;28;19912;-53
2023/01/16 13:36:07;;;;;;;;;;;20.20;87.40;;;;;;5093840;28;20650;-52
2023/01/16 13:38:36;;;;;;;;;;;20.20;87.40;;;;;;5099753;28;19911;-48
2023/01/16 13:41:11;;;;;;;;;;;20.20;87.50;;;;;;5093140;28;19916;-47
2023/01/16 13:46:27;;;;;;;;;;;20.20;87.50;;;;;;5111775;28;20044;-49
2023/01/16 13:48:53;;;;;;;;;;;20.20;87.60;;;;;;5115505;28;19923;-48
2023/01/16 13:51:21;;;;;;;;;;;20.20;87.60;;;;;;5094067;28;19917;-48
2023/01/16 13:53:50;;;;;;;;;;;20.20;87.50;;;;;;5094127;28;19912;-49
2023/01/16 13:56:20;;;;;;;;;;;20.20;87.80;;;;;;5112404;28;19915;-49
2023/01/16 13:58:48;;;;;;;;;;;20.20;87.80;;;;;;5093663;28;20267;-48
2023/01/16 14:01:32;;;;;;;;;;;20.10;87.60;;;;;;5094858;28;20423;-51
2023/01/16 14:04:16;;;;;;;;;;;20.20;87.80;;;;;;5092017;28;20030;-51
2023/01/16 14:06:43;;;;;;;;;;;20.10;87.80;;;;;;5094528;28;19957;-47
2023/01/16 14:09:18;;;;;;;;;;;20.20;87.70;;;;;;5102889;28;19939;-51
2023/01/16 14:12:17;;;;;;;;;;;20.20;87.70;;;;;;5090961;28;19921;-49
2023/01/16 14:17:28;;;;;;;;;;;20.20;87.60;;;;;;5091762;28;19919;-48
2023/01/16 14:19:54;;;;;;;;;;;20.20;87.50;;;;;;5095290;28;19924;-50
2023/01/16 14:24:56;;;;;;;;;;;20.10;87.80;;;;;;5112491;28;20374;-53
2023/01/16 14:27:29;;;;;;;;;;;20.10;88.00;;;;;;5095223;28;19973;-49
2023/01/16 14:29:59;;;;;;;;;;;20.10;88.60;;;;;;5093393;28;20052;-54
2023/01/16 14:32:29;;;;;;;;;;;20.10;88.00;;;;;;5094554;28;19912;-47
2023/01/16 14:35:01;;;;;;;;;;;20.00;88.20;;;;;;5110048;28;19912;-51
2023/01/16 14:37:28;;;;;;;;;;;20.00;88.20;;;;;;5112769;28;20043;-54
2023/01/16 14:40:02;;;;;;;;;;;20.00;88.40;;;;;;5100509;28;20034;-50
2023/01/16 14:56:29;;;;;;;;;;;20.10;88.10;;;;;;5092383;28;19918;-52
2023/01/16 14:59:01;;;;;;;;;;;20.10;88.00;;;;;;5088516;28;19913;-51
2023/01/16 15:04:17;;;;;;;;;;;20.10;88.10;;;;;;5108884;28;19937;-50
2023/01/16 15:06:48;;;;;;;;;;;20.20;88.20;;;;;;5102047;28;19912;-50
2023/01/16 15:09:17;;;;;;;;;;;20.10;88.10;;;;;;5087047;28;19995;-50
2023/01/16 15:11:59;;;;;;;;;;;20.20;88.00;;;;;;5093240;28;20034;-49
2023/01/16 15:14:33;;;;;;;;;;;20.20;88.00;;;;;;5092812;28;20270;-50
2023/01/16 15:22:44;;;;;;;;;;;20.30;87.70;;;;;;5090568;28;19988;-50
2023/01/16 15:25:14;;;;;;;;;;;20.20;87.70;;;;;;5091617;28;19962;-54
2023/01/16 15:27:41;;;;;;;;;;;20.30;87.80;;;;;;5093378;28;19916;-48
2023/01/16 15:30:08;;;;;;;;;;;20.30;87.70;;;;;;5082078;28;19912;-53
2023/01/16 15:32:53;;;;;;;;;;;20.30;87.60;;;;;;5090350;28;19951;-50
2023/01/16 15:35:20;;;;;;;;;;;20.40;87.60;;;;;;5090792;28;19912;-53
2023/01/16 15:37:49;;;;;;;;;;;20.40;87.60;;;;;;5085269;28;19966;-52
2023/01/16 15:40:21;;;;;;;;;;;20.40;87.40;;;;;;5091858;28;20381;-52
2023/01/16 15:48:27;;;;;;;;;;;20.50;87.40;;;;;;5103720;28;19966;-53
2023/01/16 15:51:04;;;;;;;;;;;20.50;87.30;;;;;;5078326;28;20314;-51
2023/01/16 15:53:41;;;;;;;;;;;20.60;87.30;;;;;;5104437;28;19919;-48
2023/01/16 15:56:15;;;;;;;;;;;20.60;87.40;;;;;;5104147;28;19908;-50
2023/01/16 15:58:41;;;;;;;;;;;20.60;87.20;;;;;;5113616;28;19915;-52
2023/01/16 16:01:07;;;;;;;;;;;20.50;87.20;;;;;;5076230;28;19908;-53
2023/01/16 16:03:46;;;;;;;;;;;20.50;87.30;;;;;;5076386;28;19912;-53
2023/01/16 16:06:12;;;;;;;;;;;20.50;87.40;;;;;;5079058;28;19920;-53